createdAt,value
2023-01-19T00:02:55.680Z,78.57
2023-01-19T00:06:44.563Z,78.61
2023-01-19T00:10:27.450Z,78.43
2023-01-19T00:14:09.934Z,78.69
2023-01-19T00:17:44.879Z,78.69
2023-01-19T00:21:52.916Z,78.41
2023-01-19T00:25:54.345Z,78.90
2023-01-19T00:29:43.507Z,78.79
2023-01-19T00:33:37.551Z,78.81
2023-01-19T00:37:39.710Z,79.03
2023-01-19T00:41:41.622Z,79.13
2023-01-19T00:45:03.085Z,78.74
2023-01-19T00:49:19.053Z,78.66
2023-01-19T00:53:03.961Z,78.54
2023-01-19T00:56:25.150Z,78.75
2023-01-19T00:59:32.372Z,78.52
2023-01-19T01:03:06.828Z,78.58
2023-01-19T01:07:08.991Z,78.47
2023-01-19T01:10:36.953Z,78.78
2023-01-19T01:14:27.660Z,78.95
2023-01-19T01:18:29.959Z,78.95
2023-01-19T01:22:20.112Z,79.15
2023-01-19T01:25:26.746Z,79.56
2023-01-19T01:28:31.708Z,79.61
2023-01-19T01:31:33.706Z,79.57
2023-01-19T01:34:46.641Z,79.78
2023-01-19T01:38:38.680Z,80.07
2023-01-19T01:42:30.402Z,80.04
2023-01-19T01:46:32.580Z,80.09
2023-01-19T01:49:55.650Z,80.42
2023-01-19T01:54:00.303Z,80.53
2023-01-19T01:57:45.640Z,80.92
2023-01-19T02:01:37.758Z,80.67
2023-01-19T02:05:13.548Z,81.04
2023-01-19T02:09:14.025Z,80.90
2023-01-19T02:13:14.633Z,81.22
2023-01-19T02:17:17.377Z,81.47
2023-01-19T02:21:19.599Z,81.35
2023-01-19T02:24:25.518Z,80.89
2023-01-19T02:27:39.876Z,81.12
2023-01-19T02:31:17.568Z,80.91
2023-01-19T02:34:39.866Z,80.91
2023-01-19T02:38:23.462Z,80.37
2023-01-19T02:42:19.957Z,80.50
2023-01-19T02:46:22.248Z,80.28
2023-01-19T02:49:50.471Z,79.99
2023-01-19T02:53:52.654Z,80.23
2023-01-19T02:57:49.210Z,79.89
2023-01-19T03:01:31.660Z,79.87
2023-01-19T03:04:42.498Z,79.75
2023-01-19T03:08:31.259Z,79.54
2023-01-19T03:12:33.135Z,79.56
2023-01-19T03:16:52.256Z,79.60
2023-01-19T03:20:53.484Z,79.49
2023-01-19T03:24:37.024Z,79.70
2023-01-19T03:28:35.012Z,79.58
2023-01-19T03:32:35.706Z,79.51
2023-01-19T03:36:48.424Z,79.78
2023-01-19T03:40:59.685Z,79.56
2023-01-19T03:44:42.341Z,79.42
2023-01-19T03:48:43.986Z,79.53
2023-01-19T03:52:46.209Z,79.62
2023-01-19T03:57:03.682Z,79.76
2023-01-19T04:00:55.454Z,79.59
2023-01-19T04:04:56.795Z,79.58
2023-01-19T04:08:11.907Z,79.44
2023-01-19T04:11:57.658Z,79.66
2023-01-19T04:15:48.832Z,79.46
2023-01-19T04:19:42.961Z,79.48
2023-01-19T04:23:49.229Z,79.12
2023-01-19T04:27:50.211Z,78.96
2023-01-19T04:31:31.266Z,78.92
2023-01-19T04:35:33.608Z,78.80
2023-01-19T04:39:06.348Z,78.50
2023-01-19T04:43:08.532Z,78.31
2023-01-19T04:47:02.750Z,78.30
2023-01-19T04:50:58.184Z,78.35
2023-01-19T04:54:43.083Z,78.62
2023-01-19T04:57:53.900Z,78.58
2023-01-19T05:01:18.305Z,78.25
2023-01-19T05:05:13.424Z,78.08
2023-01-19T05:09:08.405Z,78.08
2023-01-19T05:13:09.405Z,77.48
2023-01-19T05:16:54.555Z,77.25
2023-01-19T05:20:03.896Z,77.54
2023-01-19T05:23:16.113Z,77.57
2023-01-19T05:26:46.381Z,77.35
2023-01-19T05:30:08.722Z,77.80
2023-01-19T05:33:14.972Z,77.84
2023-01-19T05:37:04.615Z,77.74
2023-01-19T05:40:36.013Z,77.30
2023-01-19T05:44:10.209Z,77.51
2023-01-19T05:48:02.309Z,77.23
2023-01-19T05:51:37.944Z,76.99
2023-01-19T05:55:40.129Z,77.00
2023-01-19T05:58:45.097Z,76.88
2023-01-19T06:02:08.038Z,76.76
2023-01-19T06:05:45.398Z,76.66
2023-01-19T06:09:07.437Z,76.58
2023-01-19T06:12:08.993Z,76.54
2023-01-19T06:15:42.146Z,76.34
2023-01-19T06:18:43.735Z,76.11
2023-01-19T06:22:07.353Z,76.07
2023-01-19T06:25:33.138Z,76.24
2023-01-19T06:29:03.556Z,76.15
2023-01-19T06:32:38.433Z,75.90
2023-01-19T06:36:40.743Z,75.88
2023-01-19T06:40:08.625Z,75.88
2023-01-19T06:43:13.787Z,75.96
2023-01-19T06:46:17.647Z,76.25
2023-01-19T06:50:07.018Z,75.91
2023-01-19T06:53:21.774Z,76.08
2023-01-19T06:56:28.481Z,75.97
2023-01-19T06:59:42.194Z,75.95
2023-01-19T07:02:54.908Z,75.79
2023-01-19T07:06:35.925Z,76.03
2023-01-19T07:10:16.134Z,75.97
2023-01-19T07:13:50.791Z,75.96
2023-01-19T07:17:43.659Z,75.97
2023-01-19T07:21:02.355Z,75.98
2023-01-19T07:24:34.981Z,75.69
2023-01-19T07:28:03.087Z,75.76
2023-01-19T07:31:48.048Z,75.55
2023-01-19T07:35:04.029Z,75.73
2023-01-19T07:38:57.141Z,75.70
2023-01-19T07:42:51.663Z,75.53
2023-01-19T07:46:00.817Z,75.49
2023-01-19T07:49:07.951Z,75.20
2023-01-19T07:52:55.510Z,75.17
2023-01-19T07:56:43.128Z,75.05
2023-01-19T08:00:35.455Z,75.29
2023-01-19T08:04:11.394Z,75.23
2023-01-19T08:08:05.414Z,74.89
2023-01-19T08:11:37.906Z,75.03
2023-01-19T08:14:51.399Z,75.14
2023-01-19T08:18:15.144Z,75.34
2023-01-19T08:22:00.066Z,74.86
2023-01-19T08:25:19.670Z,75.19
2023-01-19T08:28:22.094Z,75.17
2023-01-19T08:32:04.446Z,74.92
2023-01-19T08:35:34.351Z,74.89
2023-01-19T08:38:42.912Z,74.88
2023-01-19T08:42:44.445Z,75.05
2023-01-19T08:46:25.163Z,74.89
2023-01-19T08:50:28.409Z,74.81
2023-01-19T08:54:23.682Z,74.61
2023-01-19T08:58:14.220Z,74.68
2023-01-19T09:02:16.543Z,74.58
2023-01-19T09:06:00.878Z,74.45
2023-01-19T09:09:44.322Z,74.61
2023-01-19T09:13:16.605Z,74.48
2023-01-19T09:17:01.585Z,74.22
2023-01-19T09:20:49.384Z,74.47
2023-01-19T09:24:34.443Z,74.21
2023-01-19T09:28:27.091Z,74.23
2023-01-19T09:32:04.978Z,73.99
2023-01-19T09:35:28.485Z,73.97
2023-01-19T09:39:41.619Z,73.94
2023-01-19T09:48:10.801Z,73.85
2023-01-19T09:52:15.758Z,73.82
2023-01-19T09:56:11.095Z,74.00
2023-01-19T10:00:07.401Z,74.00
2023-01-19T10:03:54.733Z,73.76
2023-01-19T10:07:52.499Z,73.55
2023-01-19T10:11:52.966Z,73.78
2023-01-19T10:15:54.797Z,73.04
2023-01-19T10:19:37.765Z,73.36
2023-01-19T10:23:31.613Z,73.23
2023-01-19T10:27:22.355Z,73.07
2023-01-19T10:31:17.539Z,73.24
2023-01-19T10:35:19.818Z,73.29
2023-01-19T10:39:22.007Z,73.80
2023-01-19T10:43:24.308Z,73.58
2023-01-19T10:47:10.676Z,73.57
2023-01-19T10:51:11.813Z,73.52
2023-01-19T10:55:14.088Z,73.41
2023-01-19T10:59:23.991Z,73.57
2023-01-19T11:03:12.627Z,73.11
2023-01-19T11:07:08.923Z,73.03
2023-01-19T11:11:17.298Z,72.92
2023-01-19T11:15:09.299Z,73.04
2023-01-19T11:19:17.429Z,72.95
2023-01-19T11:23:20.055Z,73.11
2023-01-19T11:27:16.356Z,72.96
2023-01-19T11:31:19.684Z,73.07
2023-01-19T11:35:16.456Z,72.67
2023-01-19T11:39:24.611Z,72.69
2023-01-19T11:43:15.868Z,72.54
2023-01-19T11:47:18.768Z,72.49
2023-01-19T11:51:21.740Z,72.50
2023-01-19T11:55:07.099Z,71.92
2023-01-19T11:59:04.595Z,72.30
2023-01-19T12:03:22.685Z,72.66
2023-01-19T12:07:25.444Z,72.44
2023-01-19T12:11:27.672Z,72.30
2023-01-19T12:15:43.232Z,71.31
2023-01-19T12:19:47.755Z,71.32
2023-01-19T12:23:58.795Z,71.96
2023-01-19T12:28:06.550Z,71.59
2023-01-19T12:32:08.807Z,71.84
2023-01-19T12:36:08.492Z,71.69
2023-01-19T12:40:16.284Z,71.95
2023-01-19T12:44:12.573Z,71.98
2023-01-19T12:48:08.025Z,71.87
2023-01-19T12:52:06.408Z,71.76
2023-01-19T12:56:17.580Z,71.44
2023-01-19T13:00:15.379Z,71.51
2023-01-19T13:04:16.422Z,71.40
2023-01-19T13:08:17.949Z,70.49
2023-01-19T13:12:13.007Z,70.12
2023-01-19T13:16:33.996Z,70.85
2023-01-19T13:20:36.356Z,70.11
2023-01-19T13:24:49.917Z,70.30
2023-01-19T13:28:54.689Z,70.53
2023-01-19T13:32:39.633Z,70.94
2023-01-19T13:36:42.019Z,71.14
2023-01-19T13:40:37.686Z,71.00
2023-01-19T13:44:23.134Z,71.48
2023-01-19T13:48:24.469Z,71.46
2023-01-19T13:52:27.811Z,71.74
2023-01-19T13:56:28.708Z,71.66
2023-01-19T14:00:31.518Z,71.42
2023-01-19T14:04:19.329Z,71.41
2023-01-19T14:08:21.701Z,71.57
2023-01-19T14:12:29.312Z,71.70
2023-01-19T14:16:32.044Z,71.74
2023-01-19T14:20:40.540Z,71.35
2023-01-19T14:24:45.856Z,71.92
2023-01-19T14:28:50.269Z,71.84
2023-01-19T14:32:31.840Z,71.82
2023-01-19T14:36:27.198Z,71.88
2023-01-19T14:40:47.916Z,72.05
2023-01-19T14:44:48.968Z,72.37
2023-01-19T14:48:54.857Z,72.14
2023-01-19T14:52:56.921Z,71.97
2023-01-19T14:57:05.209Z,71.92
2023-01-19T15:01:07.454Z,72.11
2023-01-19T15:05:15.384Z,71.90
2023-01-19T15:08:29.664Z,71.89
2023-01-19T15:11:35.239Z,71.97
2023-01-19T15:15:37.465Z,72.11
2023-01-19T15:19:37.213Z,72.14
2023-01-19T15:23:15.234Z,72.34
2023-01-19T15:27:08.472Z,71.99
2023-01-19T15:31:08.051Z,72.21
2023-01-19T15:35:04.450Z,71.79
2023-01-19T15:38:56.857Z,72.13
2023-01-19T15:42:34.440Z,72.29
2023-01-19T15:46:28.291Z,72.41
2023-01-19T15:50:19.187Z,72.15
2023-01-19T15:54:40.191Z,72.37
2023-01-19T15:58:40.750Z,72.58
2023-01-19T16:02:37.569Z,72.68
2023-01-19T16:06:41.404Z,72.52
2023-01-19T16:10:46.641Z,72.76
2023-01-19T16:14:40.388Z,72.62
2023-01-19T16:18:43.125Z,72.73
2023-01-19T16:29:04.671Z,72.78
2023-01-19T16:55:46.846Z,72.42
2023-01-19T16:59:54.842Z,72.74
2023-01-19T17:03:39.825Z,72.84
2023-01-19T17:07:36.148Z,72.72
2023-01-19T17:11:38.089Z,72.69
2023-01-19T17:15:33.586Z,72.62
2023-01-19T17:24:01.485Z,72.63
2023-01-19T17:28:05.226Z,72.43
2023-01-19T17:31:54.739Z,72.64
2023-01-19T17:35:50.090Z,72.74
2023-01-19T17:39:36.401Z,72.74
2023-01-19T17:43:29.729Z,72.43
2023-01-19T17:47:27.038Z,72.36
2023-01-19T17:51:31.211Z,72.39
2023-01-19T17:55:34.942Z,72.43
2023-01-19T17:59:14.149Z,72.40
2023-01-19T18:07:32.592Z,72.31
2023-01-19T18:11:29.094Z,72.46
2023-01-19T18:15:30.375Z,72.18
2023-01-19T18:19:24.106Z,72.34
2023-01-19T18:23:27.828Z,72.86
2023-01-19T18:27:12.806Z,72.48
2023-01-19T18:31:16.494Z,72.49
2023-01-19T18:35:20.231Z,72.65
2023-01-19T18:39:09.458Z,72.84
2023-01-19T18:43:19.085Z,72.66
2023-01-19T18:47:21.568Z,72.64
2023-01-19T18:51:24.691Z,72.83
2023-01-19T18:55:20.022Z,72.69
2023-01-19T18:59:18.422Z,72.79
2023-01-19T19:03:20.609Z,72.58
2023-01-19T19:07:33.044Z,72.44
2023-01-19T19:11:26.865Z,72.55
2023-01-19T19:15:21.703Z,72.48
2023-01-19T19:19:13.728Z,72.51
2023-01-19T19:23:10.177Z,72.57
2023-01-19T19:27:14.481Z,72.14
2023-01-19T19:31:01.286Z,72.23
2023-01-19T19:35:06.282Z,72.27
2023-01-19T19:39:10.293Z,72.41
2023-01-19T19:43:14.009Z,72.23
2023-01-19T19:47:18.134Z,72.17
2023-01-19T19:51:17.129Z,72.05
2023-01-19T19:55:22.018Z,72.10
2023-01-19T19:59:26.343Z,71.97
2023-01-19T20:03:15.323Z,72.52
2023-01-19T20:07:18.099Z,72.36
2023-01-19T20:11:10.831Z,72.30
2023-01-19T20:15:07.245Z,72.04
